sensor_id;sensor_type;location;lat;lon;timestamp;P1;durP1;ratioP1;P2;durP2;ratioP2
25249;SDS011;13201;51.148;13.738;2023-03-14T00:02:00;2.05;;;0.73;;
25249;SDS011;13201;51.148;13.738;2023-03-14T00:04:26;0.88;;;0.57;;
25249;SDS011;13201;51.148;13.738;2023-03-14T00:06:51;0.60;;;0.40;;
25249;SDS011;13201;51.148;13.738;2023-03-14T00:09:17;0.75;;;0.55;;
25249;SDS011;13201;51.148;13.738;2023-03-14T00:11:43;0.50;;;0.38;;
25249;SDS011;13201;51.148;13.738;2023-03-14T00:14:09;1.25;;;0.50;;
25249;SDS011;13201;51.148;13.738;2023-03-14T00:16:34;1.33;;;0.60;;
25249;SDS011;13201;51.148;13.738;2023-03-14T00:19:00;2.67;;;0.82;;
25249;SDS011;13201;51.148;13.738;2023-03-14T00:21:26;0.70;;;0.70;;
25249;SDS011;13201;51.148;13.738;2023-03-14T00:23:52;1.70;;;0.63;;
25249;SDS011;13201;51.148;13.738;2023-03-14T00:26:19;1.80;;;0.50;;
25249;SDS011;13201;51.148;13.738;2023-03-14T00:28:45;1.13;;;0.80;;
25249;SDS011;13201;51.148;13.738;2023-03-14T00:31:13;0.88;;;0.73;;
25249;SDS011;13201;51.148;13.738;2023-03-14T00:33:40;0.85;;;0.77;;
25249;SDS011;13201;51.148;13.738;2023-03-14T00:36:12;0.50;;;0.50;;
25249;SDS011;13201;51.148;13.738;2023-03-14T00:38:39;0.57;;;0.50;;
25249;SDS011;13201;51.148;13.738;2023-03-14T00:41:06;1.38;;;0.95;;
25249;SDS011;13201;51.148;13.738;2023-03-14T00:43:34;2.25;;;0.95;;
25249;SDS011;13201;51.148;13.738;2023-03-14T00:46:00;1.10;;;0.80;;
25249;SDS011;13201;51.148;13.738;2023-03-14T00:48:26;0.70;;;0.63;;
25249;SDS011;13201;51.148;13.738;2023-03-14T00:50:52;2.50;;;0.93;;
25249;SDS011;13201;51.148;13.738;2023-03-14T00:53:18;2.25;;;0.95;;
25249;SDS011;13201;51.148;13.738;2023-03-14T00:55:43;1.38;;;0.98;;
25249;SDS011;13201;51.148;13.738;2023-03-14T00:58:10;1.48;;;0.77;;
25249;SDS011;13201;51.148;13.738;2023-03-14T01:00:37;1.17;;;0.80;;
25249;SDS011;13201;51.148;13.738;2023-03-14T01:03:04;1.67;;;1.20;;
25249;SDS011;13201;51.148;13.738;2023-03-14T01:30:54;3.50;;;1.15;;
25249;SDS011;13201;51.148;13.738;2023-03-14T01:33:19;1.70;;;1.20;;
25249;SDS011;13201;51.148;13.738;2023-03-14T01:35:45;1.48;;;1.35;;
25249;SDS011;13201;51.148;13.738;2023-03-14T01:38:14;1.63;;;1.35;;
25249;SDS011;13201;51.148;13.738;2023-03-14T01:40:43;3.63;;;1.10;;
25249;SDS011;13201;51.148;13.738;2023-03-14T01:43:14;2.78;;;1.38;;
25249;SDS011;13201;51.148;13.738;2023-03-14T01:48:31;3.28;;;1.23;;
25249;SDS011;13201;51.148;13.738;2023-03-14T01:51:02;1.35;;;0.93;;
25249;SDS011;13201;51.148;13.738;2023-03-14T01:53:34;1.40;;;1.30;;
25249;SDS011;13201;51.148;13.738;2023-03-14T01:58:28;1.15;;;1.00;;
25249;SDS011;13201;51.148;13.738;2023-03-14T02:00:57;1.70;;;1.20;;
25249;SDS011;13201;51.148;13.738;2023-03-14T02:03:23;1.75;;;1.40;;
25249;SDS011;13201;51.148;13.738;2023-03-14T02:05:51;1.48;;;1.38;;
25249;SDS011;13201;51.148;13.738;2023-03-14T02:08:20;1.50;;;1.05;;
25249;SDS011;13201;51.148;13.738;2023-03-14T02:10:47;2.15;;;1.30;;
25249;SDS011;13201;51.148;13.738;2023-03-14T02:13:15;3.70;;;1.60;;
25249;SDS011;13201;51.148;13.738;2023-03-14T02:15:43;1.80;;;1.40;;
25249;SDS011;13201;51.148;13.738;2023-03-14T02:18:09;1.50;;;1.10;;
25249;SDS011;13201;51.148;13.738;2023-03-14T02:23:23;1.48;;;1.25;;
25249;SDS011;13201;51.148;13.738;2023-03-14T02:26:01;1.77;;;1.30;;
25249;SDS011;13201;51.148;13.738;2023-03-14T02:28:33;2.05;;;1.40;;
25249;SDS011;13201;51.148;13.738;2023-03-14T02:30:59;1.63;;;1.20;;
25249;SDS011;13201;51.148;13.738;2023-03-14T02:33:25;4.00;;;0.90;;
25249;SDS011;13201;51.148;13.738;2023-03-14T02:38:47;1.55;;;1.20;;
25249;SDS011;13201;51.148;13.738;2023-03-14T02:41:36;1.85;;;1.00;;
25249;SDS011;13201;51.148;13.738;2023-03-14T02:44:01;1.20;;;1.00;;
25249;SDS011;13201;51.148;13.738;2023-03-14T02:46:27;2.08;;;1.02;;
25249;SDS011;13201;51.148;13.738;2023-03-14T02:48:55;1.20;;;1.00;;
25249;SDS011;13201;51.148;13.738;2023-03-14T02:51:22;1.60;;;1.08;;
25249;SDS011;13201;51.148;13.738;2023-03-14T02:53:48;1.60;;;1.10;;
25249;SDS011;13201;51.148;13.738;2023-03-14T02:56:14;1.00;;;0.90;;
25249;SDS011;13201;51.148;13.738;2023-03-14T02:58:40;2.05;;;0.60;;
25249;SDS011;13201;51.148;13.738;2023-03-14T03:01:06;0.98;;;0.40;;
25249;SDS011;13201;51.148;13.738;2023-03-14T03:03:32;0.85;;;0.70;;
25249;SDS011;13201;51.148;13.738;2023-03-14T03:05:57;0.93;;;0.40;;
25249;SDS011;13201;51.148;13.738;2023-03-14T03:08:24;0.65;;;0.45;;
25249;SDS011;13201;51.148;13.738;2023-03-14T03:10:51;0.30;;;0.30;;
25249;SDS011;13201;51.148;13.738;2023-03-14T03:15:44;0.43;;;0.40;;
25249;SDS011;13201;51.148;13.738;2023-03-14T03:18:10;0.65;;;0.20;;
25249;SDS011;13201;51.148;13.738;2023-03-14T03:20:36;0.77;;;0.50;;
25249;SDS011;13201;51.148;13.738;2023-03-14T03:23:02;0.40;;;0.20;;
25249;SDS011;13201;51.148;13.738;2023-03-14T03:25:28;0.68;;;0.17;;
25249;SDS011;13201;51.148;13.738;2023-03-14T03:27:54;0.30;;;0.20;;
25249;SDS011;13201;51.148;13.738;2023-03-14T03:30:20;0.10;;;0.10;;
25249;SDS011;13201;51.148;13.738;2023-03-14T03:32:45;0.22;;;0.22;;
25249;SDS011;13201;51.148;13.738;2023-03-14T03:35:11;0.20;;;0.10;;
25249;SDS011;13201;51.148;13.738;2023-03-14T03:37:37;0.20;;;0.20;;
25249;SDS011;13201;51.148;13.738;2023-03-14T03:40:04;0.20;;;0.20;;
25249;SDS011;13201;51.148;13.738;2023-03-14T03:42:31;0.10;;;0.10;;
25249;SDS011;13201;51.148;13.738;2023-03-14T03:44:58;1.52;;;0.20;;
25249;SDS011;13201;51.148;13.738;2023-03-14T03:47:24;0.38;;;0.10;;
25249;SDS011;13201;51.148;13.738;2023-03-14T03:49:50;0.15;;;0.10;;
25249;SDS011;13201;51.148;13.738;2023-03-14T03:52:16;0.20;;;0.20;;
25249;SDS011;13201;51.148;13.738;2023-03-14T03:54:42;1.25;;;0.10;;
25249;SDS011;13201;51.148;13.738;2023-03-14T03:57:08;1.15;;;0.45;;
25249;SDS011;13201;51.148;13.738;2023-03-14T03:59:33;0.45;;;0.20;;
25249;SDS011;13201;51.148;13.738;2023-03-14T04:01:59;0.40;;;0.10;;
25249;SDS011;13201;51.148;13.738;2023-03-14T04:04:25;0.40;;;0.20;;
25249;SDS011;13201;51.148;13.738;2023-03-14T04:06:50;1.52;;;0.25;;
25249;SDS011;13201;51.148;13.738;2023-03-14T04:09:16;0.28;;;0.20;;
25249;SDS011;13201;51.148;13.738;2023-03-14T04:11:42;0.95;;;0.30;;
25249;SDS011;13201;51.148;13.738;2023-03-14T04:14:07;0.55;;;0.10;;
25249;SDS011;13201;51.148;13.738;2023-03-14T04:16:33;0.20;;;0.20;;
25249;SDS011;13201;51.148;13.738;2023-03-14T04:18:59;0.20;;;0.20;;
25249;SDS011;13201;51.148;13.738;2023-03-14T04:21:28;0.20;;;0.20;;
25249;SDS011;13201;51.148;13.738;2023-03-14T04:23:54;0.30;;;0.20;;
25249;SDS011;13201;51.148;13.738;2023-03-14T04:26:19;1.35;;;0.20;;
25249;SDS011;13201;51.148;13.738;2023-03-14T04:28:46;0.22;;;0.20;;
25249;SDS011;13201;51.148;13.738;2023-03-14T04:31:13;0.50;;;0.28;;
25249;SDS011;13201;51.148;13.738;2023-03-14T04:33:41;1.70;;;0.30;;
25249;SDS011;13201;51.148;13.738;2023-03-14T04:36:07;0.38;;;0.15;;
25249;SDS011;13201;51.148;13.738;2023-03-14T04:38:34;1.98;;;0.40;;
25249;SDS011;13201;51.148;13.738;2023-03-14T04:40:59;0.25;;;0.20;;
25249;SDS011;13201;51.148;13.738;2023-03-14T04:43:26;0.60;;;0.28;;
25249;SDS011;13201;51.148;13.738;2023-03-14T04:45:55;0.60;;;0.17;;
25249;SDS011;13201;51.148;13.738;2023-03-14T04:48:22;0.57;;;0.20;;
25249;SDS011;13201;51.148;13.738;2023-03-14T04:50:48;1.35;;;0.20;;
25249;SDS011;13201;51.148;13.738;2023-03-14T04:53:15;0.32;;;0.20;;
25249;SDS011;13201;51.148;13.738;2023-03-14T04:55:42;0.85;;;0.35;;
25249;SDS011;13201;51.148;13.738;2023-03-14T04:58:07;1.75;;;0.50;;
25249;SDS011;13201;51.148;13.738;2023-03-14T05:00:33;0.40;;;0.20;;
25249;SDS011;13201;51.148;13.738;2023-03-14T05:02:59;1.00;;;0.40;;
25249;SDS011;13201;51.148;13.738;2023-03-14T05:05:25;2.17;;;0.25;;
25249;SDS011;13201;51.148;13.738;2023-03-14T05:07:51;3.25;;;0.30;;
25249;SDS011;13201;51.148;13.738;2023-03-14T05:10:16;1.52;;;0.68;;
25249;SDS011;13201;51.148;13.738;2023-03-14T05:12:42;0.47;;;0.28;;
25249;SDS011;13201;51.148;13.738;2023-03-14T05:15:08;1.10;;;0.50;;
25249;SDS011;13201;51.148;13.738;2023-03-14T05:17:34;3.10;;;0.80;;
25249;SDS011;13201;51.148;13.738;2023-03-14T05:20:00;2.55;;;0.63;;
25249;SDS011;13201;51.148;13.738;2023-03-14T05:22:26;1.30;;;0.40;;
25249;SDS011;13201;51.148;13.738;2023-03-14T05:24:51;0.65;;;0.22;;
25249;SDS011;13201;51.148;13.738;2023-03-14T05:27:21;1.40;;;0.50;;
25249;SDS011;13201;51.148;13.738;2023-03-14T05:29:47;0.82;;;0.28;;
25249;SDS011;13201;51.148;13.738;2023-03-14T05:32:13;1.70;;;0.85;;
25249;SDS011;13201;51.148;13.738;2023-03-14T05:34:38;0.80;;;0.30;;
25249;SDS011;13201;51.148;13.738;2023-03-14T05:37:04;3.33;;;0.50;;
25249;SDS011;13201;51.148;13.738;2023-03-14T05:39:30;1.75;;;0.52;;
25249;SDS011;13201;51.148;13.738;2023-03-14T05:41:55;0.65;;;0.25;;
25249;SDS011;13201;51.148;13.738;2023-03-14T05:44:21;2.30;;;0.50;;
25249;SDS011;13201;51.148;13.738;2023-03-14T05:46:47;5.13;;;0.80;;
25249;SDS011;13201;51.148;13.738;2023-03-14T05:49:13;2.72;;;0.30;;
25249;SDS011;13201;51.148;13.738;2023-03-14T05:51:38;2.53;;;0.45;;
25249;SDS011;13201;51.148;13.738;2023-03-14T05:54:04;1.90;;;0.50;;
25249;SDS011;13201;51.148;13.738;2023-03-14T05:56:30;2.22;;;0.60;;
25249;SDS011;13201;51.148;13.738;2023-03-14T05:58:55;1.30;;;0.40;;
25249;SDS011;13201;51.148;13.738;2023-03-14T06:01:21;2.88;;;0.47;;
25249;SDS011;13201;51.148;13.738;2023-03-14T06:03:47;2.88;;;0.40;;
25249;SDS011;13201;51.148;13.738;2023-03-14T06:06:12;2.67;;;0.52;;
25249;SDS011;13201;51.148;13.738;2023-03-14T06:08:38;1.08;;;0.40;;
25249;SDS011;13201;51.148;13.738;2023-03-14T06:11:04;1.83;;;0.50;;
25249;SDS011;13201;51.148;13.738;2023-03-14T06:13:30;3.38;;;0.60;;
25249;SDS011;13201;51.148;13.738;2023-03-14T06:15:55;2.55;;;0.50;;
25249;SDS011;13201;51.148;13.738;2023-03-14T06:18:21;1.90;;;0.50;;
25249;SDS011;13201;51.148;13.738;2023-03-14T06:20:47;3.35;;;0.70;;
25249;SDS011;13201;51.148;13.738;2023-03-14T06:23:13;0.70;;;0.30;;
25249;SDS011;13201;51.148;13.738;2023-03-14T06:25:38;2.78;;;0.50;;
25249;SDS011;13201;51.148;13.738;2023-03-14T06:28:04;3.38;;;0.60;;
25249;SDS011;13201;51.148;13.738;2023-03-14T06:30:30;2.25;;;0.60;;
25249;SDS011;13201;51.148;13.738;2023-03-14T06:32:55;2.88;;;0.70;;
25249;SDS011;13201;51.148;13.738;2023-03-14T06:35:22;2.35;;;0.70;;
25249;SDS011;13201;51.148;13.738;2023-03-14T06:37:47;2.40;;;0.30;;
25249;SDS011;13201;51.148;13.738;2023-03-14T06:40:13;2.65;;;0.60;;
25249;SDS011;13201;51.148;13.738;2023-03-14T06:42:45;3.17;;;0.68;;
25249;SDS011;13201;51.148;13.738;2023-03-14T06:45:12;4.28;;;0.52;;
25249;SDS011;13201;51.148;13.738;2023-03-14T06:47:38;1.67;;;0.60;;
25249;SDS011;13201;51.148;13.738;2023-03-14T06:50:05;4.97;;;0.50;;
25249;SDS011;13201;51.148;13.738;2023-03-14T06:52:31;1.85;;;0.73;;
25249;SDS011;13201;51.148;13.738;2023-03-14T06:54:57;1.52;;;0.40;;
25249;SDS011;13201;51.148;13.738;2023-03-14T06:57:22;1.10;;;0.70;;
25249;SDS011;13201;51.148;13.738;2023-03-14T06:59:48;3.47;;;0.90;;
25249;SDS011;13201;51.148;13.738;2023-03-14T07:02:14;2.00;;;0.60;;
25249;SDS011;13201;51.148;13.738;2023-03-14T07:04:39;3.15;;;0.88;;
25249;SDS011;13201;51.148;13.738;2023-03-14T07:07:06;3.13;;;0.80;;
25249;SDS011;13201;51.148;13.738;2023-03-14T07:09:33;6.07;;;1.00;;
25249;SDS011;13201;51.148;13.738;2023-03-14T07:11:59;2.08;;;0.70;;
25249;SDS011;13201;51.148;13.738;2023-03-14T07:14:25;3.42;;;0.60;;
25249;SDS011;13201;51.148;13.738;2023-03-14T07:16:51;3.90;;;0.60;;
25249;SDS011;13201;51.148;13.738;2023-03-14T07:19:17;2.15;;;0.70;;
25249;SDS011;13201;51.148;13.738;2023-03-14T07:21:43;3.67;;;0.73;;
25249;SDS011;13201;51.148;13.738;2023-03-14T07:24:08;3.28;;;0.70;;
25249;SDS011;13201;51.148;13.738;2023-03-14T07:26:34;3.85;;;0.70;;
25249;SDS011;13201;51.148;13.738;2023-03-14T07:29:00;2.03;;;0.63;;
25249;SDS011;13201;51.148;13.738;2023-03-14T07:31:28;2.85;;;0.70;;
25249;SDS011;13201;51.148;13.738;2023-03-14T07:33:54;2.67;;;0.85;;
25249;SDS011;13201;51.148;13.738;2023-03-14T07:36:20;1.95;;;0.50;;
25249;SDS011;13201;51.148;13.738;2023-03-14T07:38:46;2.90;;;0.70;;
25249;SDS011;13201;51.148;13.738;2023-03-14T07:41:12;3.90;;;0.40;;
25249;SDS011;13201;51.148;13.738;2023-03-14T07:43:38;1.53;;;0.50;;
25249;SDS011;13201;51.148;13.738;2023-03-14T07:46:04;0.73;;;0.27;;
25249;SDS011;13201;51.148;13.738;2023-03-14T07:48:31;2.20;;;0.53;;
25249;SDS011;13201;51.148;13.738;2023-03-14T07:50:57;3.00;;;0.55;;
25249;SDS011;13201;51.148;13.738;2023-03-14T07:53:23;1.73;;;0.60;;
25249;SDS011;13201;51.148;13.738;2023-03-14T07:55:53;1.13;;;0.50;;
25249;SDS011;13201;51.148;13.738;2023-03-14T07:58:19;1.95;;;0.38;;
25249;SDS011;13201;51.148;13.738;2023-03-14T08:00:49;1.60;;;0.65;;
25249;SDS011;13201;51.148;13.738;2023-03-14T08:03:15;0.80;;;0.50;;
25249;SDS011;13201;51.148;13.738;2023-03-14T08:05:41;2.75;;;0.50;;
25249;SDS011;13201;51.148;13.738;2023-03-14T08:08:07;0.45;;;0.32;;
25249;SDS011;13201;51.148;13.738;2023-03-14T08:10:33;1.83;;;0.60;;
25249;SDS011;13201;51.148;13.738;2023-03-14T08:12:59;5.78;;;1.20;;
25249;SDS011;13201;51.148;13.738;2023-03-14T08:15:26;2.75;;;0.80;;
25249;SDS011;13201;51.148;13.738;2023-03-14T08:17:53;3.30;;;0.75;;
25249;SDS011;13201;51.148;13.738;2023-03-14T08:20:20;2.70;;;0.77;;
25249;SDS011;13201;51.148;13.738;2023-03-14T08:22:47;0.80;;;0.60;;
25249;SDS011;13201;51.148;13.738;2023-03-14T08:25:14;3.27;;;0.90;;
25249;SDS011;13201;51.148;13.738;2023-03-14T08:27:40;3.15;;;0.90;;
25249;SDS011;13201;51.148;13.738;2023-03-14T08:30:07;2.42;;;0.70;;
25249;SDS011;13201;51.148;13.738;2023-03-14T08:32:35;1.60;;;0.68;;
25249;SDS011;13201;51.148;13.738;2023-03-14T08:35:01;1.70;;;0.57;;
25249;SDS011;13201;51.148;13.738;2023-03-14T08:37:27;1.10;;;0.50;;
25249;SDS011;13201;51.148;13.738;2023-03-14T08:39:53;2.80;;;0.82;;
25249;SDS011;13201;51.148;13.738;2023-03-14T08:42:18;0.90;;;0.60;;
25249;SDS011;13201;51.148;13.738;2023-03-14T08:44:44;1.95;;;0.65;;
25249;SDS011;13201;51.148;13.738;2023-03-14T08:47:10;2.85;;;0.40;;
25249;SDS011;13201;51.148;13.738;2023-03-14T08:49:36;1.17;;;0.52;;
25249;SDS011;13201;51.148;13.738;2023-03-14T08:52:02;0.77;;;0.30;;
25249;SDS011;13201;51.148;13.738;2023-03-14T08:54:29;2.95;;;0.30;;
25249;SDS011;13201;51.148;13.738;2023-03-14T08:56:55;2.60;;;0.60;;
25249;SDS011;13201;51.148;13.738;2023-03-14T08:59:22;3.35;;;1.23;;
25249;SDS011;13201;51.148;13.738;2023-03-14T09:01:48;0.52;;;0.30;;
25249;SDS011;13201;51.148;13.738;2023-03-14T09:04:13;1.40;;;0.35;;
25249;SDS011;13201;51.148;13.738;2023-03-14T09:06:39;1.05;;;0.40;;
25249;SDS011;13201;51.148;13.738;2023-03-14T09:09:05;1.87;;;0.97;;
25249;SDS011;13201;51.148;13.738;2023-03-14T09:11:31;2.33;;;0.55;;
25249;SDS011;13201;51.148;13.738;2023-03-14T09:13:57;1.47;;;0.40;;
25249;SDS011;13201;51.148;13.738;2023-03-14T09:16:23;4.75;;;0.65;;
25249;SDS011;13201;51.148;13.738;2023-03-14T09:18:49;1.98;;;0.30;;
25249;SDS011;13201;51.148;13.738;2023-03-14T09:21:15;0.95;;;0.32;;
25249;SDS011;13201;51.148;13.738;2023-03-14T09:23:40;2.90;;;0.60;;
25249;SDS011;13201;51.148;13.738;2023-03-14T09:26:06;0.55;;;0.38;;
25249;SDS011;13201;51.148;13.738;2023-03-14T09:28:32;2.35;;;0.60;;
25249;SDS011;13201;51.148;13.738;2023-03-14T09:31:04;1.38;;;0.32;;
25249;SDS011;13201;51.148;13.738;2023-03-14T09:33:34;1.60;;;0.27;;
25249;SDS011;13201;51.148;13.738;2023-03-14T09:36:01;0.63;;;0.45;;
25249;SDS011;13201;51.148;13.738;2023-03-14T09:38:27;0.70;;;0.50;;
25249;SDS011;13201;51.148;13.738;2023-03-14T09:40:53;2.10;;;0.75;;
25249;SDS011;13201;51.148;13.738;2023-03-14T09:43:19;1.45;;;0.63;;
25249;SDS011;13201;51.148;13.738;2023-03-14T09:45:47;3.40;;;0.80;;
25249;SDS011;13201;51.148;13.738;2023-03-14T09:48:16;1.75;;;0.60;;
25249;SDS011;13201;51.148;13.738;2023-03-14T09:50:46;2.83;;;0.63;;
25249;SDS011;13201;51.148;13.738;2023-03-14T09:53:18;2.15;;;0.50;;
25249;SDS011;13201;51.148;13.738;2023-03-14T09:55:47;2.67;;;0.45;;
25249;SDS011;13201;51.148;13.738;2023-03-14T09:58:19;1.33;;;0.50;;
25249;SDS011;13201;51.148;13.738;2023-03-14T10:00:45;1.15;;;0.43;;
25249;SDS011;13201;51.148;13.738;2023-03-14T10:05:37;2.95;;;0.60;;
25249;SDS011;13201;51.148;13.738;2023-03-14T10:08:04;0.63;;;0.20;;
25249;SDS011;13201;51.148;13.738;2023-03-14T10:10:31;0.65;;;0.32;;
25249;SDS011;13201;51.148;13.738;2023-03-14T10:13:05;0.90;;;0.30;;
25249;SDS011;13201;51.148;13.738;2023-03-14T10:15:51;1.38;;;0.40;;
25249;SDS011;13201;51.148;13.738;2023-03-14T10:18:19;1.30;;;0.20;;
25249;SDS011;13201;51.148;13.738;2023-03-14T10:20:46;1.80;;;0.30;;
25249;SDS011;13201;51.148;13.738;2023-03-14T10:25:41;1.10;;;0.40;;
25249;SDS011;13201;51.148;13.738;2023-03-14T10:31:16;0.40;;;0.30;;
25249;SDS011;13201;51.148;13.738;2023-03-14T10:33:42;1.80;;;0.50;;
25249;SDS011;13201;51.148;13.738;2023-03-14T10:36:27;0.68;;;0.35;;
25249;SDS011;13201;51.148;13.738;2023-03-14T10:39:15;1.27;;;0.38;;
25249;SDS011;13201;51.148;13.738;2023-03-14T10:42:03;0.95;;;0.40;;
25249;SDS011;13201;51.148;13.738;2023-03-14T10:44:37;0.85;;;0.57;;
25249;SDS011;13201;51.148;13.738;2023-03-14T10:47:04;0.85;;;0.32;;
25249;SDS011;13201;51.148;13.738;2023-03-14T10:49:32;1.70;;;0.30;;
25249;SDS011;13201;51.148;13.738;2023-03-14T10:52:19;0.93;;;0.20;;
25249;SDS011;13201;51.148;13.738;2023-03-14T10:54:49;1.23;;;0.32;;
25249;SDS011;13201;51.148;13.738;2023-03-14T10:57:29;1.48;;;0.30;;
25249;SDS011;13201;51.148;13.738;2023-03-14T10:59:55;0.63;;;0.40;;
25249;SDS011;13201;51.148;13.738;2023-03-14T11:07:42;1.40;;;0.38;;
25249;SDS011;13201;51.148;13.738;2023-03-14T11:16:21;2.67;;;0.50;;
25249;SDS011;13201;51.148;13.738;2023-03-14T11:21:59;1.23;;;0.40;;
25249;SDS011;13201;51.148;13.738;2023-03-14T11:32:42;0.63;;;0.35;;
25249;SDS011;13201;51.148;13.738;2023-03-14T11:40:24;1.42;;;0.30;;
25249;SDS011;13201;51.148;13.738;2023-03-14T11:42:59;1.08;;;0.22;;
25249;SDS011;13201;51.148;13.738;2023-03-14T11:45:35;2.35;;;0.32;;
25249;SDS011;13201;51.148;13.738;2023-03-14T11:50:32;2.03;;;0.40;;
25249;SDS011;13201;51.148;13.738;2023-03-14T11:53:03;2.40;;;0.30;;
25249;SDS011;13201;51.148;13.738;2023-03-14T11:55:31;1.08;;;0.40;;
25249;SDS011;13201;51.148;13.738;2023-03-14T11:58:09;0.63;;;0.30;;
25249;SDS011;13201;51.148;13.738;2023-03-14T12:00:42;0.88;;;0.40;;
25249;SDS011;13201;51.148;13.738;2023-03-14T12:06:09;0.60;;;0.30;;
25249;SDS011;13201;51.148;13.738;2023-03-14T12:08:47;0.10;;;0.10;;
25249;SDS011;13201;51.148;13.738;2023-03-14T12:13:58;0.68;;;0.20;;
25249;SDS011;13201;51.148;13.738;2023-03-14T12:18:51;0.47;;;0.30;;
25249;SDS011;13201;51.148;13.738;2023-03-14T12:23:53;0.80;;;0.40;;
25249;SDS011;13201;51.148;13.738;2023-03-14T12:26:24;1.98;;;0.52;;
25249;SDS011;13201;51.148;13.738;2023-03-14T12:39:22;0.85;;;0.30;;
25249;SDS011;13201;51.148;13.738;2023-03-14T12:42:04;0.30;;;0.20;;
25249;SDS011;13201;51.148;13.738;2023-03-14T12:49:44;0.45;;;0.20;;
25249;SDS011;13201;51.148;13.738;2023-03-14T12:52:22;0.57;;;0.20;;
25249;SDS011;13201;51.148;13.738;2023-03-14T13:00:41;0.10;;;0.10;;
25249;SDS011;13201;51.148;13.738;2023-03-14T13:05:59;1.52;;;0.20;;
25249;SDS011;13201;51.148;13.738;2023-03-14T13:11:19;0.30;;;0.10;;
25249;SDS011;13201;51.148;13.738;2023-03-14T13:13:49;0.40;;;0.20;;
25249;SDS011;13201;51.148;13.738;2023-03-14T13:16:22;1.60;;;0.17;;
25249;SDS011;13201;51.148;13.738;2023-03-14T13:18:49;0.40;;;0.20;;
25249;SDS011;13201;51.148;13.738;2023-03-14T13:21:26;0.73;;;0.20;;
25249;SDS011;13201;51.148;13.738;2023-03-14T13:24:00;0.38;;;0.15;;
25249;SDS011;13201;51.148;13.738;2023-03-14T13:26:34;1.02;;;0.20;;
25249;SDS011;13201;51.148;13.738;2023-03-14T13:29:35;0.75;;;0.20;;
25249;SDS011;13201;51.148;13.738;2023-03-14T13:32:01;0.10;;;0.10;;
25249;SDS011;13201;51.148;13.738;2023-03-14T13:34:38;0.10;;;0.10;;
25249;SDS011;13201;51.148;13.738;2023-03-14T13:37:03;0.40;;;0.10;;
25249;SDS011;13201;51.148;13.738;2023-03-14T13:39:29;0.40;;;0.30;;
25249;SDS011;13201;51.148;13.738;2023-03-14T13:41:59;0.68;;;0.20;;
25249;SDS011;13201;51.148;13.738;2023-03-14T13:47:02;0.15;;;0.10;;
25249;SDS011;13201;51.148;13.738;2023-03-14T13:49:30;0.25;;;0.15;;
25249;SDS011;13201;51.148;13.738;2023-03-14T13:52:00;0.98;;;0.22;;
25249;SDS011;13201;51.148;13.738;2023-03-14T13:54:27;1.02;;;0.40;;
25249;SDS011;13201;51.148;13.738;2023-03-14T13:57:03;0.20;;;0.10;;
25249;SDS011;13201;51.148;13.738;2023-03-14T13:59:31;4.88;;;0.28;;
25249;SDS011;13201;51.148;13.738;2023-03-14T14:01:59;1.70;;;0.57;;
25249;SDS011;13201;51.148;13.738;2023-03-14T14:04:30;0.65;;;0.20;;
25249;SDS011;13201;51.148;13.738;2023-03-14T14:06:59;0.40;;;0.35;;
25249;SDS011;13201;51.148;13.738;2023-03-14T14:12:03;0.93;;;0.20;;
25249;SDS011;13201;51.148;13.738;2023-03-14T14:14:34;0.50;;;0.20;;
25249;SDS011;13201;51.148;13.738;2023-03-14T14:17:08;0.85;;;0.20;;
25249;SDS011;13201;51.148;13.738;2023-03-14T14:19:37;0.68;;;0.10;;
25249;SDS011;13201;51.148;13.738;2023-03-14T14:22:04;0.10;;;0.10;;
25249;SDS011;13201;51.148;13.738;2023-03-14T14:24:32;0.40;;;0.30;;
25249;SDS011;13201;51.148;13.738;2023-03-14T14:29:44;0.70;;;0.20;;
25249;SDS011;13201;51.148;13.738;2023-03-14T14:32:21;1.05;;;0.40;;
25249;SDS011;13201;51.148;13.738;2023-03-14T14:34:48;0.40;;;0.22;;
25249;SDS011;13201;51.148;13.738;2023-03-14T14:37:29;0.23;;;0.20;;
25249;SDS011;13201;51.148;13.738;2023-03-14T14:40:14;0.35;;;0.20;;
25249;SDS011;13201;51.148;13.738;2023-03-14T14:42:47;0.10;;;0.10;;
25249;SDS011;13201;51.148;13.738;2023-03-14T14:45:21;1.48;;;0.30;;
25249;SDS011;13201;51.148;13.738;2023-03-14T14:50:38;0.70;;;0.20;;
25249;SDS011;13201;51.148;13.738;2023-03-14T14:53:21;0.35;;;0.20;;
25249;SDS011;13201;51.148;13.738;2023-03-14T14:55:52;0.28;;;0.28;;
25249;SDS011;13201;51.148;13.738;2023-03-14T15:00:54;0.57;;;0.30;;
25249;SDS011;13201;51.148;13.738;2023-03-14T15:03:25;0.68;;;0.40;;
25249;SDS011;13201;51.148;13.738;2023-03-14T15:05:53;1.15;;;0.20;;
25249;SDS011;13201;51.148;13.738;2023-03-14T15:08:20;0.93;;;0.20;;
25249;SDS011;13201;51.148;13.738;2023-03-14T15:10:46;0.30;;;0.30;;
25249;SDS011;13201;51.148;13.738;2023-03-14T15:13:12;1.08;;;0.28;;
25249;SDS011;13201;51.148;13.738;2023-03-14T15:15:37;0.75;;;0.60;;
25249;SDS011;13201;51.148;13.738;2023-03-14T15:18:08;2.45;;;0.22;;
25249;SDS011;13201;51.148;13.738;2023-03-14T15:20:41;0.10;;;0.10;;
25249;SDS011;13201;51.148;13.738;2023-03-14T15:23:09;0.10;;;0.10;;
25249;SDS011;13201;51.148;13.738;2023-03-14T15:25:36;0.10;;;0.10;;
25249;SDS011;13201;51.148;13.738;2023-03-14T15:28:05;0.50;;;0.20;;
25249;SDS011;13201;51.148;13.738;2023-03-14T15:30:42;0.20;;;0.20;;
25249;SDS011;13201;51.148;13.738;2023-03-14T15:33:08;0.73;;;0.20;;
25249;SDS011;13201;51.148;13.738;2023-03-14T15:35:35;1.13;;;0.30;;
25249;SDS011;13201;51.148;13.738;2023-03-14T15:38:02;0.50;;;0.30;;
25249;SDS011;13201;51.148;13.738;2023-03-14T15:40:28;0.40;;;0.30;;
25249;SDS011;13201;51.148;13.738;2023-03-14T15:42:53;1.10;;;0.40;;
25249;SDS011;13201;51.148;13.738;2023-03-14T15:45:19;0.73;;;0.20;;
25249;SDS011;13201;51.148;13.738;2023-03-14T15:47:45;1.13;;;0.20;;
25249;SDS011;13201;51.148;13.738;2023-03-14T15:50:10;1.40;;;0.40;;
25249;SDS011;13201;51.148;13.738;2023-03-14T15:52:36;0.52;;;0.10;;
25249;SDS011;13201;51.148;13.738;2023-03-14T15:55:02;1.40;;;0.22;;
25249;SDS011;13201;51.148;13.738;2023-03-14T15:57:28;0.68;;;0.20;;
25249;SDS011;13201;51.148;13.738;2023-03-14T15:59:54;0.60;;;0.30;;
25249;SDS011;13201;51.148;13.738;2023-03-14T16:02:19;0.40;;;0.30;;
25249;SDS011;13201;51.148;13.738;2023-03-14T16:04:45;0.20;;;0.20;;
25249;SDS011;13201;51.148;13.738;2023-03-14T16:07:11;0.13;;;0.10;;
25249;SDS011;13201;51.148;13.738;2023-03-14T16:09:36;0.85;;;0.30;;
25249;SDS011;13201;51.148;13.738;2023-03-14T16:12:02;0.63;;;0.30;;
25249;SDS011;13201;51.148;13.738;2023-03-14T16:14:29;0.85;;;0.30;;
25249;SDS011;13201;51.148;13.738;2023-03-14T16:16:55;0.60;;;0.30;;
25249;SDS011;13201;51.148;13.738;2023-03-14T16:19:24;0.45;;;0.30;;
25249;SDS011;13201;51.148;13.738;2023-03-14T16:21:55;1.33;;;0.30;;
25249;SDS011;13201;51.148;13.738;2023-03-14T16:24:21;0.45;;;0.20;;
25249;SDS011;13201;51.148;13.738;2023-03-14T16:26:47;1.95;;;0.20;;
25249;SDS011;13201;51.148;13.738;2023-03-14T16:29:12;0.40;;;0.20;;
25249;SDS011;13201;51.148;13.738;2023-03-14T16:31:38;0.63;;;0.20;;
25249;SDS011;13201;51.148;13.738;2023-03-14T16:34:10;2.90;;;0.20;;
25249;SDS011;13201;51.148;13.738;2023-03-14T16:36:36;0.05;;;0.05;;
25249;SDS011;13201;51.148;13.738;2023-03-14T16:39:02;1.75;;;0.20;;
25249;SDS011;13201;51.148;13.738;2023-03-14T16:41:27;0.20;;;0.10;;
25249;SDS011;13201;51.148;13.738;2023-03-14T16:43:56;0.52;;;0.20;;
25249;SDS011;13201;51.148;13.738;2023-03-14T16:46:22;0.82;;;0.40;;